Station History


Daily Summary for March 10, 2012 Units:  Both    English   Metric
« Previous Day
Next Day »
Daily Weekly Monthly Yearly Custom
  High: Low: Average:
Temperature: 77.0 °F /  25 °C 38.8 °F /  3.8 °C 57 °F /  13.9 °C
Dew Point: 42.0 °F /  5.6 °C 32.8 °F /  0.4 °C 35.9 °F /  2.2 °C
Humidity: 85% 21% 50%
Wind Speed: 5.0mph /  8km/h - 2.2mph /  3.5km/h
Wind Gust: 5.0mph /  8km/h - -
Wind- - WSW
Pressure: 30.10 in /  1019.2 hPa 29.89 in /  1012.1 hPa -
Precipitation: 0.00 in /  0 mm    
Historical Graphs
 
 
Tabular Data for March 10, 2012
Time Temperature Dew Point Pressure Wind Wind Speed Wind Gust Humidity Rainfall Rate (Hourly)
00:02 45.7 °F /  7.6 °C 36.5 °F /  2.5 °C 30.10in /  1019.2hPa Calm     70% 0.00in /  0mm
00:07 46.0 °F /  7.8 °C 36.4 °F /  2.4 °C 30.10in /  1019.2hPa Calm     69% 0.00in /  0mm
00:12 46.1 °F /  7.8 °C 36.1 °F /  2.3 °C 30.10in /  1019.2hPa Calm     68% 0.00in /  0mm
00:17 45.9 °F /  7.7 °C 35.9 °F /  2.2 °C 30.10in /  1019.2hPa Calm     68% 0.00in /  0mm
00:22 45.8 °F /  7.7 °C 35.8 °F /  2.1 °C 30.10in /  1019.2hPa East 1.1mph /  1.8km/h 1.1mph /  1.8km/h 68% 0.00in /  0mm
00:27 45.7 °F /  7.6 °C 35.7 °F /  2.1 °C 30.10in /  1019.2hPa Calm     68% 0.00in /  0mm
00:32 45.6 °F /  7.6 °C 35.6 °F /  2 °C 30.09in /  1018.8hPa Calm     68% 0.00in /  0mm
00:37 45.5 °F /  7.5 °C 35.9 °F /  2.2 °C 30.09in /  1018.8hPa Calm     69% 0.00in /  0mm
00:42 45.2 °F /  7.3 °C 36.0 °F /  2.2 °C 30.09in /  1018.8hPa Calm     70% 0.00in /  0mm
00:47 44.9 °F /  7.2 °C 35.3 °F /  1.8 °C 30.09in /  1018.8hPa Calm     69% 0.00in /  0mm
00:52 44.5 °F /  6.9 °C 35.3 °F /  1.8 °C 30.09in /  1018.8hPa Calm     70% 0.00in /  0mm
00:57 44.1 °F /  6.7 °C 35.3 °F /  1.8 °C 30.09in /  1018.8hPa Calm     71% 0.00in /  0mm
01:02 43.9 °F /  6.6 °C 35.1 °F /  1.7 °C 30.09in /  1018.8hPa Calm     71% 0.00in /  0mm
01:07 43.7 °F /  6.5 °C 35.3 °F /  1.8 °C 30.09in /  1018.8hPa Calm     72% 0.00in /  0mm
01:12 43.5 °F /  6.4 °C 35.1 °F /  1.7 °C 30.08in /  1018.5hPa Calm     72% 0.00in /  0mm
01:17 43.5 °F /  6.4 °C 35.4 °F /  1.9 °C 30.08in /  1018.5hPa Calm     73% 0.00in /  0mm
01:23 43.6 °F /  6.4 °C 35.2 °F /  1.8 °C 30.08in /  1018.5hPa Calm     72% 0.00in /  0mm
01:28 43.6 °F /  6.4 °C 35.5 °F /  1.9 °C 30.08in /  1018.5hPa Calm     73% 0.00in /  0mm
01:33 43.5 °F /  6.4 °C 35.8 °F /  2.1 °C 30.08in /  1018.5hPa Calm     74% 0.00in /  0mm
01:38 43.6 °F /  6.4 °C 36.2 °F /  2.3 °C 30.07in /  1018.2hPa Calm     75% 0.00in /  0mm
01:43 44.0 °F /  6.7 °C 36.2 °F /  2.3 °C 30.07in /  1018.2hPa Calm     74% 0.00in /  0mm
01:48 44.3 °F /  6.8 °C 36.2 °F /  2.3 °C 30.07in /  1018.2hPa Calm     73% 0.00in /  0mm
01:53 44.5 °F /  6.9 °C 36.0 °F /  2.2 °C 30.07in /  1018.2hPa Calm     72% 0.00in /  0mm
01:58 44.5 °F /  6.9 °C 36.4 °F /  2.4 °C 30.06in /  1017.8hPa Calm     73% 0.00in /  0mm
02:03 44.8 °F /  7.1 °C 36.3 °F /  2.4 °C 30.06in /  1017.8hPa Calm     72% 0.00in /  0mm
02:08 44.9 °F /  7.2 °C 36.4 °F /  2.4 °C 30.06in /  1017.8hPa Calm     72% 0.00in /  0mm
02:13 45.2 °F /  7.3 °C 36.4 °F /  2.4 °C 30.06in /  1017.8hPa Calm     71% 0.00in /  0mm
02:18 45.2 °F /  7.3 °C 36.4 °F /  2.4 °C 30.05in /  1017.5hPa Calm     71% 0.00in /  0mm
02:23 45.0 °F /  7.2 °C 35.8 °F /  2.1 °C 30.05in /  1017.5hPa Calm     70% 0.00in /  0mm
02:28 44.7 °F /  7.1 °C 35.9 °F /  2.2 °C 30.05in /  1017.5hPa Calm     71% 0.00in /  0mm
02:33 44.4 °F /  6.9 °C 35.6 °F /  2 °C 30.05in /  1017.5hPa Calm     71% 0.00in /  0mm
02:38 44.2 °F /  6.8 °C 35.7 °F /  2.1 °C 30.05in /  1017.5hPa Calm     72% 0.00in /  0mm
02:43 44.0 °F /  6.7 °C 35.6 °F /  2 °C 30.05in /  1017.5hPa Calm     72% 0.00in /  0mm
02:48 43.9 °F /  6.6 °C 35.8 °F /  2.1 °C 30.05in /  1017.5hPa Calm     73% 0.00in /  0mm
02:53 44.1 °F /  6.7 °C 35.6 °F /  2 °C 30.05in /  1017.5hPa Calm     72% 0.00in /  0mm
02:58 44.0 °F /  6.7 °C 35.6 °F /  2 °C 30.04in /  1017.2hPa Calm     72% 0.00in /  0mm
03:03 43.9 °F /  6.6 °C 35.5 °F /  1.9 °C 30.05in /  1017.5hPa Calm     72% 0.00in /  0mm
03:08 44.1 °F /  6.7 °C 35.6 °F /  2 °C 30.05in /  1017.5hPa Calm     72% 0.00in /  0mm
03:13 44.4 °F /  6.9 °C 35.6 °F /  2 °C 30.05in /  1017.5hPa Calm     71% 0.00in /  0mm
03:18 44.3 °F /  6.8 °C 35.1 °F /  1.7 °C 30.05in /  1017.5hPa Calm     70% 0.00in /  0mm
03:23 44.0 °F /  6.7 °C 35.2 °F /  1.8 °C 30.04in /  1017.2hPa Calm     71% 0.00in /  0mm
03:28 43.6 °F /  6.4 °C 35.2 °F /  1.8 °C 30.05in /  1017.5hPa Calm     72% 0.00in /  0mm
03:33 43.3 °F /  6.3 °C 35.2 °F /  1.8 °C 30.05in /  1017.5hPa Calm     73% 0.00in /  0mm
03:38 43.0 °F /  6.1 °C 34.9 °F /  1.6 °C 30.05in /  1017.5hPa Calm     73% 0.00in /  0mm
03:43 42.7 °F /  5.9 °C 35.0 °F /  1.7 °C 30.05in /  1017.5hPa Calm     74% 0.00in /  0mm
03:48 42.5 °F /  5.8 °C 35.1 °F /  1.7 °C 30.05in /  1017.5hPa Calm     75% 0.00in /  0mm
03:53 42.3 °F /  5.7 °C 34.9 °F /  1.6 °C 30.05in /  1017.5hPa Calm     75% 0.00in /  0mm
03:58 42.0 °F /  5.6 °C 34.6 °F /  1.4 °C 30.05in /  1017.5hPa Calm     75% 0.00in /  0mm
04:03 41.9 °F /  5.5 °C 34.9 °F /  1.6 °C 30.05in /  1017.5hPa Calm     76% 0.00in /  0mm
04:08 41.6 °F /  5.3 °C 34.6 °F /  1.4 °C 30.05in /  1017.5hPa Calm     76% 0.00in /  0mm
04:13 41.3 °F /  5.2 °C 34.6 °F /  1.4 °C 30.05in /  1017.5hPa Calm     77% 0.00in /  0mm
04:18 41.1 °F /  5.1 °C 34.8 °F /  1.6 °C 30.05in /  1017.5hPa Calm     78% 0.00in /  0mm
04:23 40.8 °F /  4.9 °C 34.5 °F /  1.4 °C 30.04in /  1017.2hPa Calm     78% 0.00in /  0mm
04:28 40.4 °F /  4.7 °C 34.1 °F /  1.2 °C 30.05in /  1017.5hPa Calm     78% 0.00in /  0mm
04:33 40.1 °F /  4.5 °C 34.1 °F /  1.2 °C 30.05in /  1017.5hPa Calm     79% 0.00in /  0mm
04:39 39.8 °F /  4.3 °C 34.1 °F /  1.2 °C 30.05in /  1017.5hPa Calm     80% 0.00in /  0mm
04:44 39.6 °F /  4.2 °C 33.9 °F /  1.1 °C 30.05in /  1017.5hPa Calm     80% 0.00in /  0mm
04:49 39.5 °F /  4.2 °C 33.8 °F /  1 °C 30.05in /  1017.5hPa Calm     80% 0.00in /  0mm
04:54 39.5 °F /  4.2 °C 34.5 °F /  1.4 °C 30.05in /  1017.5hPa Calm     82% 0.00in /  0mm
04:59 39.6 °F /  4.2 °C 34.6 °F /  1.4 °C 30.05in /  1017.5hPa Calm     82% 0.00in /  0mm
05:04 39.5 °F /  4.2 °C 34.5 °F /  1.4 °C 30.05in /  1017.5hPa Calm     82% 0.00in /  0mm
05:09 39.5 °F /  4.2 °C 34.8 °F /  1.6 °C 30.05in /  1017.5hPa Calm     83% 0.00in /  0mm
05:14 39.5 °F /  4.2 °C 34.8 °F /  1.6 °C 30.05in /  1017.5hPa Calm     83% 0.00in /  0mm
05:19 39.6 °F /  4.2 °C 34.6 °F /  1.4 °C 30.05in /  1017.5hPa Calm     82% 0.00in /  0mm
05:24 39.6 °F /  4.2 °C 34.6 °F /  1.4 °C 30.05in /  1017.5hPa Calm     82% 0.00in /  0mm
05:29 39.5 °F /  4.2 °C 34.5 °F /  1.4 °C 30.05in /  1017.5hPa Calm     82% 0.00in /  0mm
05:34 39.4 °F /  4.1 °C 34.4 °F /  1.3 °C 30.05in /  1017.5hPa Calm     82% 0.00in /  0mm
05:39 39.5 °F /  4.2 °C 34.5 °F /  1.4 °C 30.05in /  1017.5hPa Calm     82% 0.00in /  0mm
05:44 39.4 °F /  4.1 °C 34.4 °F /  1.3 °C 30.05in /  1017.5hPa Calm     82% 0.00in /  0mm
05:49 39.3 °F /  4.1 °C 34.3 °F /  1.3 °C 30.05in /  1017.5hPa Calm     82% 0.00in /  0mm
05:54 39.2 °F /  4 °C 34.5 °F /  1.4 °C 30.05in /  1017.5hPa Calm     83% 0.00in /  0mm
05:59 39.3 °F /  4.1 °C 34.3 °F /  1.3 °C 30.05in /  1017.5hPa Calm     82% 0.00in /  0mm
06:04 39.5 °F /  4.2 °C 34.5 °F /  1.4 °C 30.06in /  1017.8hPa Calm     82% 0.00in /  0mm
06:09 39.5 °F /  4.2 °C 34.2 °F /  1.2 °C 30.06in /  1017.8hPa Calm     81% 0.00in /  0mm
06:14 39.4 °F /  4.1 °C 34.1 °F /  1.2 °C 30.06in /  1017.8hPa Calm     81% 0.00in /  0mm
06:19 39.2 °F /  4 °C 33.9 °F /  1.1 °C 30.05in /  1017.5hPa Calm     81% 0.00in /  0mm
06:24 38.9 °F /  3.8 °C 34.2 °F /  1.2 °C 30.05in /  1017.5hPa Calm     83% 0.00in /  0mm
06:29 38.9 °F /  3.8 °C 34.2 °F /  1.2 °C 30.05in /  1017.5hPa Calm     83% 0.00in /  0mm
06:34 38.8 °F /  3.8 °C 34.1 °F /  1.2 °C 30.05in /  1017.5hPa Calm     83% 0.00in /  0mm
06:39 38.8 °F /  3.8 °C 34.1 °F /  1.2 °C 30.05in /  1017.5hPa Calm     83% 0.00in /  0mm
06:44 38.8 °F /  3.8 °C 34.1 °F /  1.2 °C 30.05in /  1017.5hPa Calm     83% 0.00in /  0mm
06:49 38.8 °F /  3.8 °C 34.4 °F /  1.3 °C 30.06in /  1017.8hPa Calm     84% 0.00in /  0mm
06:54 39.1 °F /  3.9 °C 35.0 °F /  1.7 °C 30.06in /  1017.8hPa Calm     85% 0.00in /  0mm
06:59 39.5 °F /  4.2 °C 35.1 °F /  1.7 °C 30.06in /  1017.8hPa Calm     84% 0.00in /  0mm
07:04 39.8 °F /  4.3 °C 35.4 °F /  1.9 °C 30.06in /  1017.8hPa Calm     84% 0.00in /  0mm
07:09 40.1 °F /  4.5 °C 36.0 °F /  2.2 °C 30.06in /  1017.8hPa Calm     85% 0.00in /  0mm
07:14 40.8 °F /  4.9 °C 36.3 °F /  2.4 °C 30.06in /  1017.8hPa Calm     84% 0.00in /  0mm
07:19 41.5 °F /  5.3 °C 36.7 °F /  2.6 °C 30.06in /  1017.8hPa Calm     83% 0.00in /  0mm
07:24 42.4 °F /  5.8 °C 37.0 °F /  2.8 °C 30.06in /  1017.8hPa Calm     81% 0.00in /  0mm
07:29 43.4 °F /  6.3 °C 37.6 °F /  3.1 °C 30.06in /  1017.8hPa Calm     80% 0.00in /  0mm
07:34 44.5 °F /  6.9 °C 38.1 °F /  3.4 °C 30.06in /  1017.8hPa Calm     78% 0.00in /  0mm
07:39 45.5 °F /  7.5 °C 38.0 °F /  3.3 °C 30.06in /  1017.8hPa Calm     75% 0.00in /  0mm
07:44 46.4 °F /  8 °C 38.2 °F /  3.4 °C 30.07in /  1018.2hPa Calm     73% 0.00in /  0mm
07:49 47.6 °F /  8.7 °C 37.6 °F /  3.1 °C 30.07in /  1018.2hPa Calm     68% 0.00in /  0mm
07:54 48.7 °F /  9.3 °C 37.5 °F /  3.1 °C 30.07in /  1018.2hPa Calm     65% 0.00in /  0mm
07:59 50.0 °F /  10 °C 36.2 °F /  2.3 °C 30.07in /  1018.2hPa Calm     59% 0.00in /  0mm
08:04 51.2 °F /  10.7 °C 36.5 °F /  2.5 °C 30.07in /  1018.2hPa Calm     57% 0.00in /  0mm
08:09 52.0 °F /  11.1 °C 35.9 °F /  2.2 °C 30.07in /  1018.2hPa SW 1.1mph /  1.8km/h 1.1mph /  1.8km/h 54% 0.00in /  0mm
08:14 53.0 °F /  11.7 °C 36.3 °F /  2.4 °C 30.07in /  1018.2hPa Calm     53% 0.00in /  0mm
08:19 53.6 °F /  12 °C 36.4 °F /  2.4 °C 30.07in /  1018.2hPa SW 1.1mph /  1.8km/h   52% 0.00in /  0mm
08:24 54.1 °F /  12.3 °C 36.9 °F /  2.7 °C 30.06in /  1017.8hPa Calm     52% 0.00in /  0mm
08:29 54.9 °F /  12.7 °C 35.0 °F /  1.7 °C 30.07in /  1018.2hPa SW 1.1mph /  1.8km/h 1.1mph /  1.8km/h 47% 0.00in /  0mm
08:34 55.5 °F /  13.1 °C 35.6 °F /  2 °C 30.06in /  1017.8hPa SW 1.1mph /  1.8km/h 1.1mph /  1.8km/h 47% 0.00in /  0mm
08:39 56.1 °F /  13.4 °C 35.0 °F /  1.7 °C 30.06in /  1017.8hPa Calm     45% 0.00in /  0mm
08:44 56.6 °F /  13.7 °C 34.9 °F /  1.6 °C 30.06in /  1017.8hPa West 2.0mph /  3.2km/h 2.0mph /  3.2km/h 44% 0.00in /  0mm
08:49 57.2 °F /  14 °C 35.5 °F /  1.9 °C 30.06in /  1017.8hPa SW 1.1mph /  1.8km/h 1.1mph /  1.8km/h 44% 0.00in /  0mm
08:54 57.7 °F /  14.3 °C 35.9 °F /  2.2 °C 30.06in /  1017.8hPa Calm     44% 0.00in /  0mm
08:59 58.3 °F /  14.6 °C 35.9 °F /  2.2 °C 30.06in /  1017.8hPa South 1.1mph /  1.8km/h   43% 0.00in /  0mm
09:04 58.9 °F /  14.9 °C 36.4 °F /  2.4 °C 30.05in /  1017.5hPa SSE 1.1mph /  1.8km/h 1.1mph /  1.8km/h 43% 0.00in /  0mm
09:09 59.4 °F /  15.2 °C 35.1 °F /  1.7 °C 30.05in /  1017.5hPa SSW 2.3mph /  3.7km/h 2.3mph /  3.7km/h 40% 0.00in /  0mm
09:14 59.9 °F /  15.5 °C 36.1 °F /  2.3 °C 30.06in /  1017.8hPa SW 1.1mph /  1.8km/h   41% 0.00in /  0mm
09:19 60.5 °F /  15.8 °C 35.4 °F /  1.9 °C 30.05in /  1017.5hPa Calm     39% 0.00in /  0mm
09:24 60.9 °F /  16.1 °C 35.1 °F /  1.7 °C 30.04in /  1017.2hPa SE 1.1mph /  1.8km/h 1.1mph /  1.8km/h 38% 0.00in /  0mm
09:29 61.4 °F /  16.3 °C 34.9 °F /  1.6 °C 30.04in /  1017.2hPa SW 2.3mph /  3.7km/h 2.3mph /  3.7km/h 37% 0.00in /  0mm
09:34 62.2 °F /  16.8 °C 36.3 °F /  2.4 °C 30.04in /  1017.2hPa SSE 1.1mph /  1.8km/h 1.1mph /  1.8km/h 38% 0.00in /  0mm
09:39 62.7 °F /  17.1 °C 35.3 °F /  1.8 °C 30.04in /  1017.2hPa SSE 1.1mph /  1.8km/h 1.1mph /  1.8km/h 36% 0.00in /  0mm
09:45 63.2 °F /  17.3 °C 35.1 °F /  1.7 °C 30.04in /  1017.2hPa SW 1.1mph /  1.8km/h 1.1mph /  1.8km/h 35% 0.00in /  0mm
09:50 63.5 °F /  17.5 °C 34.6 °F /  1.4 °C 30.04in /  1017.2hPa South 1.1mph /  1.8km/h   34% 0.00in /  0mm
09:55 63.9 °F /  17.7 °C 35.7 °F /  2.1 °C 30.04in /  1017.2hPa SSW 1.1mph /  1.8km/h 1.1mph /  1.8km/h 35% 0.00in /  0mm
10:00 64.5 °F /  18.1 °C 34.7 °F /  1.5 °C 30.04in /  1017.2hPa SSE 2.3mph /  3.7km/h 2.3mph /  3.7km/h 33% 0.00in /  0mm
10:05 64.8 °F /  18.2 °C 34.2 °F /  1.2 °C 30.03in /  1016.8hPa SSW 1.1mph /  1.8km/h 1.1mph /  1.8km/h 32% 0.00in /  0mm
10:10 65.1 °F /  18.4 °C 34.5 °F /  1.4 °C 30.03in /  1016.8hPa SW 2.3mph /  3.7km/h 2.3mph /  3.7km/h 32% 0.00in /  0mm
10:15 65.6 °F /  18.7 °C 36.5 °F /  2.5 °C 30.03in /  1016.8hPa Calm     34% 0.00in /  0mm
10:20 66.2 °F /  19 °C 34.7 °F /  1.5 °C 30.03in /  1016.8hPa South 2.3mph /  3.7km/h 2.3mph /  3.7km/h 31% 0.00in /  0mm
10:25 66.9 °F /  19.4 °C 37.6 °F /  3.1 °C 30.03in /  1016.8hPa SSE 1.1mph /  1.8km/h 1.1mph /  1.8km/h 34% 0.00in /  0mm
10:30 67.5 °F /  19.7 °C 35.8 °F /  2.1 °C 30.03in /  1016.8hPa South 1.1mph /  1.8km/h 1.1mph /  1.8km/h 31% 0.00in /  0mm
10:35 68.1 °F /  20.1 °C 36.3 °F /  2.4 °C 30.02in /  1016.5hPa West 1.1mph /  1.8km/h 1.1mph /  1.8km/h 31% 0.00in /  0mm
10:40 68.4 °F /  20.2 °C 36.6 °F /  2.6 °C 30.02in /  1016.5hPa ESE 2.3mph /  3.7km/h 2.3mph /  3.7km/h 31% 0.00in /  0mm
10:45 68.7 °F /  20.4 °C 36.0 °F /  2.2 °C 30.02in /  1016.5hPa SSW 3.5mph /  5.6km/h 3.5mph /  5.6km/h 30% 0.00in /  0mm
10:50 69.1 °F /  20.6 °C 35.5 °F /  1.9 °C 30.03in /  1016.8hPa SW 1.1mph /  1.8km/h 1.1mph /  1.8km/h 29% 0.00in /  0mm
10:55 69.4 °F /  20.8 °C 37.4 °F /  3 °C 30.02in /  1016.5hPa SW 1.1mph /  1.8km/h 1.1mph /  1.8km/h 31% 0.00in /  0mm
11:00 69.8 °F /  21 °C 36.9 °F /  2.7 °C 30.02in /  1016.5hPa SW 1.1mph /  1.8km/h 1.1mph /  1.8km/h 30% 0.00in /  0mm
11:05 70.1 °F /  21.2 °C 36.3 °F /  2.4 °C 30.02in /  1016.5hPa SSW 2.3mph /  3.7km/h 2.3mph /  3.7km/h 29% 0.00in /  0mm
11:10 70.4 °F /  21.3 °C 36.6 °F /  2.6 °C 30.02in /  1016.5hPa SW 1.1mph /  1.8km/h 1.1mph /  1.8km/h 29% 0.00in /  0mm
11:15 70.6 °F /  21.4 °C 35.9 °F /  2.2 °C 30.02in /  1016.5hPa WSW 3.0mph /  4.8km/h 3.0mph /  4.8km/h 28% 0.00in /  0mm
11:20 70.8 °F /  21.6 °C 37.0 °F /  2.8 °C 30.02in /  1016.5hPa NW 1.1mph /  1.8km/h 1.1mph /  1.8km/h 29% 0.00in /  0mm
11:25 71.2 °F /  21.8 °C 39.0 °F /  3.9 °C 30.02in /  1016.5hPa SSE 1.1mph /  1.8km/h 1.1mph /  1.8km/h 31% 0.00in /  0mm
11:26 71.4 °F /  21.9 °C 38.3 °F /  3.5 °C 30.02in /  1016.5hPa SSE 3.5mph /  5.6km/h 3.5mph /  5.6km/h 30% 0.00in /  0mm
11:31 71.8 °F /  22.1 °C 38.7 °F /  3.7 °C 30.02in /  1016.5hPa West 2.0mph /  3.2km/h 2.0mph /  3.2km/h 30% 0.00in /  0mm
11:37 72.4 °F /  22.4 °C 38.3 °F /  3.5 °C 30.01in /  1016.1hPa South 2.3mph /  3.7km/h 2.3mph /  3.7km/h 29% 0.00in /  0mm
11:42 72.8 °F /  22.7 °C 37.8 °F /  3.2 °C 30.01in /  1016.1hPa South 2.3mph /  3.7km/h 2.3mph /  3.7km/h 28% 0.00in /  0mm
11:47 72.6 °F /  22.6 °C 41.0 °F /  5 °C 30.01in /  1016.1hPa West 3.5mph /  5.6km/h 3.5mph /  5.6km/h 32% 0.00in /  0mm
11:52 72.8 °F /  22.7 °C 42.0 °F /  5.6 °C 30.01in /  1016.1hPa NNW 4.6mph /  7.4km/h 4.6mph /  7.4km/h 33% 0.00in /  0mm
11:57 73.0 °F /  22.8 °C 39.7 °F /  4.3 °C 30.01in /  1016.1hPa NNE 3.5mph /  5.6km/h 3.5mph /  5.6km/h 30% 0.00in /  0mm
12:02 72.4 °F /  22.4 °C 39.2 °F /  4 °C 30.00in /  1015.8hPa West 3.5mph /  5.6km/h 3.5mph /  5.6km/h 30% 0.00in /  0mm
12:07 72.9 °F /  22.7 °C 37.9 °F /  3.3 °C 30.00in /  1015.8hPa WNW 3.5mph /  5.6km/h 3.5mph /  5.6km/h 28% 0.00in /  0mm
12:12 73.0 °F /  22.8 °C 37.0 °F /  2.8 °C 30.00in /  1015.8hPa SSW 1.1mph /  1.8km/h 1.1mph /  1.8km/h 27% 0.00in /  0mm
12:17 73.5 °F /  23.1 °C 40.2 °F /  4.6 °C 30.00in /  1015.8hPa SSE 2.3mph /  3.7km/h 2.3mph /  3.7km/h 30% 0.00in /  0mm
12:22 73.2 °F /  22.9 °C 39.0 °F /  3.9 °C 29.99in /  1015.5hPa North 1.1mph /  1.8km/h 1.1mph /  1.8km/h 29% 0.00in /  0mm
12:27 73.7 °F /  23.2 °C 36.7 °F /  2.6 °C 29.99in /  1015.5hPa West 2.3mph /  3.7km/h 2.3mph /  3.7km/h 26% 0.00in /  0mm
12:32 73.3 °F /  22.9 °C 39.1 °F /  3.9 °C 29.98in /  1015.1hPa SE 2.3mph /  3.7km/h 2.3mph /  3.7km/h 29% 0.00in /  0mm
12:37 73.2 °F /  22.9 °C 40.7 °F /  4.8 °C 29.98in /  1015.1hPa WSW 2.3mph /  3.7km/h   31% 0.00in /  0mm
12:42 73.4 °F /  23 °C 40.1 °F /  4.5 °C 29.98in /  1015.1hPa WSW 1.1mph /  1.8km/h 1.1mph /  1.8km/h 30% 0.00in /  0mm
12:47 74.1 °F /  23.4 °C 39.8 °F /  4.3 °C 29.98in /  1015.1hPa NW 4.0mph /  6.4km/h 4.0mph /  6.4km/h 29% 0.00in /  0mm
12:52 74.5 °F /  23.6 °C 39.2 °F /  4 °C 29.98in /  1015.1hPa NE 1.1mph /  1.8km/h   28% 0.00in /  0mm
12:57 74.9 °F /  23.8 °C 37.7 °F /  3.2 °C 29.97in /  1014.8hPa West 3.5mph /  5.6km/h 3.5mph /  5.6km/h 26% 0.00in /  0mm
13:02 74.6 °F /  23.7 °C 38.4 °F /  3.6 °C 29.97in /  1014.8hPa NNW 3.5mph /  5.6km/h 3.5mph /  5.6km/h 27% 0.00in /  0mm
13:07 74.7 °F /  23.7 °C 35.5 °F /  1.9 °C 29.96in /  1014.4hPa West 3.5mph /  5.6km/h 3.5mph /  5.6km/h 24% 0.00in /  0mm
13:12 74.3 °F /  23.5 °C 36.2 °F /  2.3 °C 29.96in /  1014.4hPa WNW 3.5mph /  5.6km/h 3.5mph /  5.6km/h 25% 0.00in /  0mm
13:17 74.8 °F /  23.8 °C 37.6 °F /  3.1 °C 29.96in /  1014.4hPa NNE 3.0mph /  4.8km/h 3.0mph /  4.8km/h 26% 0.00in /  0mm
13:22 75.3 °F /  24.1 °C 37.0 °F /  2.8 °C 29.95in /  1014.1hPa North 2.0mph /  3.2km/h 2.0mph /  3.2km/h 25% 0.00in /  0mm
13:27 75.6 °F /  24.2 °C 35.2 °F /  1.8 °C 29.95in /  1014.1hPa West 2.3mph /  3.7km/h 2.3mph /  3.7km/h 23% 0.00in /  0mm
13:32 75.7 °F /  24.3 °C 35.3 °F /  1.8 °C 29.95in /  1014.1hPa NNW 2.3mph /  3.7km/h 2.3mph /  3.7km/h 23% 0.00in /  0mm
13:37 75.7 °F /  24.3 °C 35.3 °F /  1.8 °C 29.95in /  1014.1hPa North 3.5mph /  5.6km/h 3.5mph /  5.6km/h 23% 0.00in /  0mm
13:42 75.9 °F /  24.4 °C 36.5 °F /  2.5 °C 29.95in /  1014.1hPa West 3.0mph /  4.8km/h 3.0mph /  4.8km/h 24% 0.00in /  0mm
13:48 76.2 °F /  24.6 °C 35.7 °F /  2.1 °C 29.94in /  1013.8hPa SW 5.0mph /  8km/h 5.0mph /  8km/h 23% 0.00in /  0mm
13:53 75.9 °F /  24.4 °C 37.5 °F /  3.1 °C 29.94in /  1013.8hPa NNW 2.3mph /  3.7km/h 2.3mph /  3.7km/h 25% 0.00in /  0mm
13:58 76.4 °F /  24.7 °C 34.7 °F /  1.5 °C 29.94in /  1013.8hPa WNW 3.5mph /  5.6km/h 3.5mph /  5.6km/h 22% 0.00in /  0mm
14:03 76.9 °F /  24.9 °C 35.1 °F /  1.7 °C 29.93in /  1013.4hPa SE 2.3mph /  3.7km/h 2.3mph /  3.7km/h 22% 0.00in /  0mm
14:08 77.0 °F /  25 °C 35.2 °F /  1.8 °C 29.93in /  1013.4hPa WNW 2.3mph /  3.7km/h 2.3mph /  3.7km/h 22% 0.00in /  0mm
14:13 76.8 °F /  24.9 °C 35.1 °F /  1.7 °C 29.93in /  1013.4hPa West 3.5mph /  5.6km/h 3.5mph /  5.6km/h 22% 0.00in /  0mm
14:18 76.8 °F /  24.9 °C 33.9 °F /  1.1 °C 29.93in /  1013.4hPa NW 4.6mph /  7.4km/h 4.6mph /  7.4km/h 21% 0.00in /  0mm
14:23 76.4 °F /  24.7 °C 33.6 °F /  0.9 °C 29.92in /  1013.1hPa NW 1.1mph /  1.8km/h 1.1mph /  1.8km/h 21% 0.00in /  0mm
14:28 76.1 °F /  24.5 °C 33.3 °F /  0.7 °C 29.92in /  1013.1hPa NNW 3.5mph /  5.6km/h 3.5mph /  5.6km/h 21% 0.00in /  0mm
14:33 75.0 °F /  23.9 °C 33.6 °F /  0.9 °C 29.92in /  1013.1hPa East 3.5mph /  5.6km/h   22% 0.00in /  0mm
14:38 74.9 °F /  23.8 °C 34.6 °F /  1.4 °C 29.92in /  1013.1hPa SW 1.1mph /  1.8km/h 1.1mph /  1.8km/h 23% 0.00in /  0mm
14:43 75.1 °F /  23.9 °C 35.8 °F /  2.1 °C 29.92in /  1013.1hPa NW 3.0mph /  4.8km/h 3.0mph /  4.8km/h 24% 0.00in /  0mm
14:48 74.8 °F /  23.8 °C 35.6 °F /  2 °C 29.92in /  1013.1hPa NW 2.0mph /  3.2km/h 2.0mph /  3.2km/h 24% 0.00in /  0mm
14:53 74.6 °F /  23.7 °C 35.4 °F /  1.9 °C 29.91in /  1012.8hPa NNW 1.1mph /  1.8km/h 1.1mph /  1.8km/h 24% 0.00in /  0mm
14:58 74.6 °F /  23.7 °C 37.4 °F /  3 °C 29.91in /  1012.8hPa NNE 2.0mph /  3.2km/h 2.0mph /  3.2km/h 26% 0.00in /  0mm
15:03 74.7 °F /  23.7 °C 35.5 °F /  1.9 °C 29.91in /  1012.8hPa West 1.1mph /  1.8km/h 1.1mph /  1.8km/h 24% 0.00in /  0mm
15:08 74.8 °F /  23.8 °C 36.6 °F /  2.6 °C 29.91in /  1012.8hPa West 2.3mph /  3.7km/h 2.3mph /  3.7km/h 25% 0.00in /  0mm
15:13 75.9 °F /  24.4 °C 36.5 °F /  2.5 °C 29.91in /  1012.8hPa NNW 2.3mph /  3.7km/h 2.3mph /  3.7km/h 24% 0.00in /  0mm
15:18 76.3 °F /  24.6 °C 35.8 °F /  2.1 °C 29.91in /  1012.8hPa North 3.5mph /  5.6km/h 3.5mph /  5.6km/h 23% 0.00in /  0mm
15:23 75.8 °F /  24.3 °C 35.3 °F /  1.8 °C 29.91in /  1012.8hPa SSW 3.5mph /  5.6km/h 3.5mph /  5.6km/h 23% 0.00in /  0mm
15:28 76.4 °F /  24.7 °C 34.7 °F /  1.5 °C 29.90in /  1012.4hPa NNW 1.1mph /  1.8km/h 1.1mph /  1.8km/h 22% 0.00in /  0mm
15:33 76.2 °F /  24.6 °C 33.4 °F /  0.8 °C 29.90in /  1012.4hPa West 1.1mph /  1.8km/h 1.1mph /  1.8km/h 21% 0.00in /  0mm
15:38 75.6 °F /  24.2 °C 34.1 °F /  1.2 °C 29.90in /  1012.4hPa SW 3.5mph /  5.6km/h 3.5mph /  5.6km/h 22% 0.00in /  0mm
15:43 75.1 °F /  23.9 °C 33.6 °F /  0.9 °C 29.90in /  1012.4hPa West 3.5mph /  5.6km/h 3.5mph /  5.6km/h 22% 0.00in /  0mm
15:48 75.5 °F /  24.2 °C 32.8 °F /  0.4 °C 29.90in /  1012.4hPa NNE 1.1mph /  1.8km/h 1.2mph /  1.9km/h 21% 0.00in /  0mm
15:53 75.6 °F /  24.2 °C 32.9 °F /  0.5 °C 29.90in /  1012.4hPa WSW 1.1mph /  1.8km/h 1.4mph /  2.3km/h 21% 0.00in /  0mm
15:58 75.7 °F /  24.3 °C 35.3 °F /  1.8 °C 29.89in /  1012.1hPa West 3.5mph /  5.6km/h 3.5mph /  5.6km/h 23% 0.00in /  0mm
16:03 76.3 °F /  24.6 °C 34.6 °F /  1.4 °C 29.90in /  1012.4hPa NW 3.5mph /  5.6km/h 3.5mph /  5.6km/h 22% 0.00in /  0mm
16:08 76.1 °F /  24.5 °C 35.6 °F /  2 °C 29.90in /  1012.4hPa NNW 3.5mph /  5.6km/h 3.5mph /  5.6km/h 23% 0.00in /  0mm
16:13 74.9 °F /  23.8 °C 34.6 °F /  1.4 °C 29.90in /  1012.4hPa NNW 2.0mph /  3.2km/h 2.0mph /  3.2km/h 23% 0.00in /  0mm
16:18 74.1 °F /  23.4 °C 35.0 °F /  1.7 °C 29.90in /  1012.4hPa WSW 1.1mph /  1.8km/h 1.1mph /  1.8km/h 24% 0.00in /  0mm
16:23 73.7 °F /  23.2 °C 35.7 °F /  2.1 °C 29.90in /  1012.4hPa SW 2.3mph /  3.7km/h 2.3mph /  3.7km/h 25% 0.00in /  0mm
16:28 73.4 °F /  23 °C 35.4 °F /  1.9 °C 29.89in /  1012.1hPa WNW 2.0mph /  3.2km/h 2.0mph /  3.2km/h 25% 0.00in /  0mm
16:34 73.3 °F /  22.9 °C 35.3 °F /  1.8 °C 29.89in /  1012.1hPa North 1.1mph /  1.8km/h 1.1mph /  1.8km/h 25% 0.00in /  0mm
16:39 73.6 °F /  23.1 °C 35.6 °F /  2 °C 29.89in /  1012.1hPa WNW 1.1mph /  1.8km/h 1.1mph /  1.8km/h 25% 0.00in /  0mm
16:44 73.8 °F /  23.2 °C 35.8 °F /  2.1 °C 29.89in /  1012.1hPa West 2.3mph /  3.7km/h 2.3mph /  3.7km/h 25% 0.00in /  0mm
16:49 74.1 °F /  23.4 °C 36.0 °F /  2.2 °C 29.89in /  1012.1hPa NW 2.3mph /  3.7km/h 2.3mph /  3.7km/h 25% 0.00in /  0mm
16:54 73.8 °F /  23.2 °C 36.8 °F /  2.7 °C 29.89in /  1012.1hPa North 3.5mph /  5.6km/h 3.5mph /  5.6km/h 26% 0.00in /  0mm
16:59 73.3 °F /  22.9 °C 36.3 °F /  2.4 °C 29.89in /  1012.1hPa WNW 3.5mph /  5.6km/h 3.5mph /  5.6km/h 26% 0.00in /  0mm
17:04 72.7 °F /  22.6 °C 36.8 °F /  2.7 °C 29.89in /  1012.1hPa NW 3.5mph /  5.6km/h 3.5mph /  5.6km/h 27% 0.00in /  0mm
17:09 72.2 °F /  22.3 °C 35.4 °F /  1.9 °C 29.89in /  1012.1hPa North 3.5mph /  5.6km/h 3.5mph /  5.6km/h 26% 0.00in /  0mm
17:14 71.8 °F /  22.1 °C 36.0 °F /  2.2 °C 29.89in /  1012.1hPa West 1.1mph /  1.8km/h 1.1mph /  1.8km/h 27% 0.00in /  0mm
17:19 71.4 °F /  21.9 °C 36.6 °F /  2.6 °C 29.89in /  1012.1hPa NNW 1.1mph /  1.8km/h 1.1mph /  1.8km/h 28% 0.00in /  0mm
17:24 71.2 °F /  21.8 °C 37.3 °F /  2.9 °C 29.89in /  1012.1hPa NNW 1.0mph /  1.6km/h   29% 0.00in /  0mm
17:29 70.8 °F /  21.6 °C 37.0 °F /  2.8 °C 29.89in /  1012.1hPa North 1.1mph /  1.8km/h 1.1mph /  1.8km/h 29% 0.00in /  0mm
17:34 70.5 °F /  21.4 °C 35.8 °F /  2.1 °C 29.89in /  1012.1hPa NNW 2.3mph /  3.7km/h 2.3mph /  3.7km/h 28% 0.00in /  0mm
17:39 70.1 °F /  21.2 °C 36.3 °F /  2.4 °C 29.89in /  1012.1hPa NNW 1.1mph /  1.8km/h 1.1mph /  1.8km/h 29% 0.00in /  0mm
17:44 69.7 °F /  20.9 °C 36.0 °F /  2.2 °C 29.89in /  1012.1hPa Calm     29% 0.00in /  0mm
17:49 69.2 °F /  20.7 °C 35.6 °F /  2 °C 29.89in /  1012.1hPa Calm     29% 0.00in /  0mm
17:54 68.7 °F /  20.4 °C 35.1 °F /  1.7 °C 29.89in /  1012.1hPa NNW 1.1mph /  1.8km/h 1.1mph /  1.8km/h 29% 0.00in /  0mm
17:59 68.1 °F /  20.1 °C 34.6 °F /  1.4 °C 29.89in /  1012.1hPa Calm     29% 0.00in /  0mm
18:04 67.5 °F /  19.7 °C 35.0 °F /  1.7 °C 29.90in /  1012.4hPa WNW 1.1mph /  1.8km/h 1.1mph /  1.8km/h 30% 0.00in /  0mm
18:09 67.1 °F /  19.5 °C 34.6 °F /  1.4 °C 29.90in /  1012.4hPa Calm     30% 0.00in /  0mm
18:14 66.6 °F /  19.2 °C 34.2 °F /  1.2 °C 29.90in /  1012.4hPa Calm     30% 0.00in /  0mm
18:19 66.0 °F /  18.9 °C 34.5 °F /  1.4 °C 29.90in /  1012.4hPa Calm     31% 0.00in /  0mm
18:24 65.4 °F /  18.6 °C 34.8 °F /  1.6 °C 29.90in /  1012.4hPa Calm     32% 0.00in /  0mm
18:29 64.9 °F /  18.3 °C 34.3 °F /  1.3 °C 29.90in /  1012.4hPa Calm     32% 0.00in /  0mm
18:34 64.4 °F /  18 °C 34.6 °F /  1.4 °C 29.90in /  1012.4hPa Calm     33% 0.00in /  0mm
18:39 63.7 °F /  17.6 °C 34.8 °F /  1.6 °C 29.90in /  1012.4hPa Calm     34% 0.00in /  0mm
18:44 63.0 °F /  17.2 °C 34.2 °F /  1.2 °C 29.90in /  1012.4hPa Calm     34% 0.00in /  0mm
18:49 62.6 °F /  17 °C 33.8 °F /  1 °C 29.90in /  1012.4hPa Calm     34% 0.00in /  0mm
18:54 62.1 °F /  16.7 °C 34.1 °F /  1.2 °C 29.90in /  1012.4hPa Calm     35% 0.00in /  0mm
18:59 61.8 °F /  16.6 °C 33.8 °F /  1 °C 29.90in /  1012.4hPa Calm     35% 0.00in /  0mm
19:04 61.4 °F /  16.3 °C 34.9 °F /  1.6 °C 29.90in /  1012.4hPa Calm     37% 0.00in /  0mm
19:09 60.8 °F /  16 °C 35.0 °F /  1.7 °C 29.90in /  1012.4hPa Calm     38% 0.00in /  0mm
19:14 60.0 °F /  15.6 °C 35.0 °F /  1.7 °C 29.90in /  1012.4hPa Calm     39% 0.00in /  0mm
19:19 59.2 °F /  15.1 °C 34.2 °F /  1.2 °C 29.90in /  1012.4hPa Calm     39% 0.00in /  0mm
19:24 58.5 °F /  14.7 °C 35.5 °F /  1.9 °C 29.90in /  1012.4hPa Calm     42% 0.00in /  0mm
19:29 58.0 °F /  14.4 °C 35.6 °F /  2 °C 29.90in /  1012.4hPa Calm     43% 0.00in /  0mm
19:34 57.4 °F /  14.1 °C 35.6 °F /  2 °C 29.90in /  1012.4hPa Calm     44% 0.00in /  0mm
19:39 57.0 °F /  13.9 °C 35.3 °F /  1.8 °C 29.90in /  1012.4hPa Calm     44% 0.00in /  0mm
19:44 56.7 °F /  13.7 °C 34.4 °F /  1.3 °C 29.90in /  1012.4hPa Calm     43% 0.00in /  0mm
19:49 56.7 °F /  13.7 °C 35.6 °F /  2 °C 29.90in /  1012.4hPa Calm     45% 0.00in /  0mm
19:54 56.4 °F /  13.6 °C 35.3 °F /  1.8 °C 29.90in /  1012.4hPa Calm     45% 0.00in /  0mm
19:59 55.9 °F /  13.3 °C 35.4 °F /  1.9 °C 29.90in /  1012.4hPa Calm     46% 0.00in /  0mm
20:04 55.3 °F /  12.9 °C 35.4 °F /  1.9 °C 29.90in /  1012.4hPa Calm     47% 0.00in /  0mm
20:09 54.8 °F /  12.7 °C 35.5 °F /  1.9 °C 29.90in /  1012.4hPa Calm     48% 0.00in /  0mm
20:14 54.4 °F /  12.4 °C 36.1 °F /  2.3 °C 29.90in /  1012.4hPa Calm     50% 0.00in /  0mm
20:19 54.0 °F /  12.2 °C 35.8 °F /  2.1 °C 29.90in /  1012.4hPa Calm     50% 0.00in /  0mm
20:24 53.6 °F /  12 °C 36.4 °F /  2.4 °C 29.91in /  1012.8hPa Calm     52% 0.00in /  0mm
20:29 53.5 °F /  11.9 °C 36.3 °F /  2.4 °C 29.91in /  1012.8hPa Calm     52% 0.00in /  0mm
20:34 53.4 °F /  11.9 °C 36.2 °F /  2.3 °C 29.91in /  1012.8hPa Calm     52% 0.00in /  0mm
20:39 53.4 °F /  11.9 °C 36.2 °F /  2.3 °C 29.91in /  1012.8hPa Calm     52% 0.00in /  0mm
20:44 53.2 °F /  11.8 °C 36.5 °F /  2.5 °C 29.91in /  1012.8hPa Calm     53% 0.00in /  0mm
20:49 53.2 °F /  11.8 °C 36.5 °F /  2.5 °C 29.91in /  1012.8hPa Calm     53% 0.00in /  0mm
20:54 53.2 °F /  11.8 °C 37.4 °F /  3 °C 29.91in /  1012.8hPa Calm     55% 0.00in /  0mm
20:59 52.9 °F /  11.6 °C 36.7 °F /  2.6 °C 29.91in /  1012.8hPa Calm     54% 0.00in /  0mm
21:00 52.8 °F /  11.6 °C 36.6 °F /  2.6 °C 29.91in /  1012.8hPa Calm     54% 0.00in /  0mm
21:01 52.8 °F /  11.6 °C 37.1 °F /  2.8 °C 29.91in /  1012.8hPa Calm     55% 0.00in /  0mm
21:02 52.6 °F /  11.4 °C 36.4 °F /  2.4 °C 29.91in /  1012.8hPa Calm     54% 0.00in /  0mm
21:07 52.4 °F /  11.3 °C 37.2 °F /  2.9 °C 29.92in /  1013.1hPa Calm     56% 0.00in /  0mm
21:12 52.4 °F /  11.3 °C 36.7 °F /  2.6 °C 29.92in /  1013.1hPa Calm     55% 0.00in /  0mm
21:17 52.4 °F /  11.3 °C 36.7 °F /  2.6 °C 29.92in /  1013.1hPa Calm     55% 0.00in /  0mm
21:22 52.6 °F /  11.4 °C 36.9 °F /  2.7 °C 29.93in /  1013.4hPa West 1.1mph /  1.8km/h   55% 0.00in /  0mm
21:27 52.8 °F /  11.6 °C 36.6 °F /  2.6 °C 29.93in /  1013.4hPa Calm     54% 0.00in /  0mm
21:32 52.7 °F /  11.5 °C 36.5 °F /  2.5 °C 29.93in /  1013.4hPa Calm     54% 0.00in /  0mm
21:37 52.4 °F /  11.3 °C 36.7 °F /  2.6 °C 29.93in /  1013.4hPa Calm     55% 0.00in /  0mm
21:42 52.0 °F /  11.1 °C 36.8 °F /  2.7 °C 29.92in /  1013.1hPa Calm     56% 0.00in /  0mm
21:47 51.5 °F /  10.8 °C 36.8 °F /  2.7 °C 29.93in /  1013.4hPa Calm     57% 0.00in /  0mm
21:52 51.2 °F /  10.7 °C 36.9 °F /  2.7 °C 29.92in /  1013.1hPa Calm     58% 0.00in /  0mm
21:57 51.0 °F /  10.6 °C 36.7 °F /  2.6 °C 29.93in /  1013.4hPa Calm     58% 0.00in /  0mm
22:02 50.6 °F /  10.3 °C 36.4 °F /  2.4 °C 29.92in /  1013.1hPa Calm     58% 0.00in /  0mm
22:07 50.3 °F /  10.2 °C 36.5 °F /  2.5 °C 29.93in /  1013.4hPa Calm     59% 0.00in /  0mm
22:12 50.0 °F /  10 °C 36.7 °F /  2.6 °C 29.93in /  1013.4hPa Calm     60% 0.00in /  0mm
22:17 50.0 °F /  10 °C 36.7 °F /  2.6 °C 29.93in /  1013.4hPa Calm     60% 0.00in /  0mm
22:22 49.9 °F /  9.9 °C 36.6 °F /  2.6 °C 29.93in /  1013.4hPa Calm     60% 0.00in /  0mm
22:27 49.9 °F /  9.9 °C 36.6 °F /  2.6 °C 29.93in /  1013.4hPa Calm     60% 0.00in /  0mm
22:32 49.9 °F /  9.9 °C 36.6 °F /  2.6 °C 29.93in /  1013.4hPa Calm     60% 0.00in /  0mm
22:38 49.8 °F /  9.9 °C 36.5 °F /  2.5 °C 29.93in /  1013.4hPa Calm     60% 0.00in /  0mm
22:43 49.7 °F /  9.8 °C 36.4 °F /  2.4 °C 29.93in /  1013.4hPa Calm     60% 0.00in /  0mm
22:48 49.6 °F /  9.8 °C 36.3 °F /  2.4 °C 29.93in /  1013.4hPa Calm     60% 0.00in /  0mm
22:53 49.5 °F /  9.7 °C 36.6 °F /  2.6 °C 29.93in /  1013.4hPa Calm     61% 0.00in /  0mm
22:58 49.5 °F /  9.7 °C 36.6 °F /  2.6 °C 29.93in /  1013.4hPa Calm     61% 0.00in /  0mm
23:03 49.2 °F /  9.6 °C 36.3 °F /  2.4 °C 29.93in /  1013.4hPa Calm     61% 0.00in /  0mm
23:08 48.9 °F /  9.4 °C 36.4 °F /  2.4 °C 29.93in /  1013.4hPa Calm     62% 0.00in /  0mm
23:13 48.7 °F /  9.3 °C 36.7 °F /  2.6 °C 29.93in /  1013.4hPa Calm     63% 0.00in /  0mm
23:18 48.5 °F /  9.2 °C 36.5 °F /  2.5 °C 29.93in /  1013.4hPa Calm     63% 0.00in /  0mm
23:23 48.2 °F /  9 °C 37.0 °F /  2.8 °C 29.93in /  1013.4hPa Calm     65% 0.00in /  0mm
23:28 48.1 °F /  8.9 °C 36.9 °F /  2.7 °C 29.93in /  1013.4hPa Calm     65% 0.00in /  0mm
23:33 48.0 °F /  8.9 °C 36.8 °F /  2.7 °C 29.93in /  1013.4hPa Calm     65% 0.00in /  0mm
23:38 48.0 °F /  8.9 °C 36.8 °F /  2.7 °C 29.93in /  1013.4hPa Calm     65% 0.00in /  0mm
23:43 47.9 °F /  8.8 °C 36.7 °F /  2.6 °C 29.93in /  1013.4hPa Calm     65% 0.00in /  0mm
23:48 47.5 °F /  8.6 °C 36.7 °F /  2.6 °C 29.93in /  1013.4hPa Calm     66% 0.00in /  0mm
23:53 47.5 °F /  8.6 °C 37.1 °F /  2.8 °C 29.93in /  1013.4hPa Calm     67% 0.00in /  0mm
23:58 47.2 °F /  8.4 °C 36.4 °F /  2.4 °C 29.93in /  1013.4hPa Calm     66% 0.00in /  0mm
Compliments of Weather Underground